createdAt,value
2018-07-16T00:03:28.609Z,4.10
2018-07-16T00:08:12.113Z,3.13
2018-07-16T00:12:59.598Z,3.67
2018-07-16T00:17:43.214Z,2.97
2018-07-16T00:22:26.862Z,3.40
2018-07-16T00:27:10.560Z,4.33
2018-07-16T00:31:54.123Z,4.97
2018-07-16T00:36:38.908Z,3.50
2018-07-16T00:41:22.557Z,2.80
2018-07-16T00:46:09.704Z,3.33
2018-07-16T00:50:53.247Z,4.20
2018-07-16T00:55:39.979Z,4.57
2018-07-16T01:00:23.569Z,4.10
2018-07-16T01:05:10.710Z,3.20
2018-07-16T01:09:54.157Z,3.43
2018-07-16T01:14:41.212Z,4.87
2018-07-16T01:19:24.823Z,3.60
2018-07-16T01:24:09.458Z,4.27
2018-07-16T01:28:53.168Z,4.07
2018-07-16T01:33:36.782Z,4.23
2018-07-16T01:38:20.318Z,6.03
2018-07-16T01:43:07.017Z,3.80
2018-07-16T01:47:50.619Z,3.50
2018-07-16T01:52:38.501Z,3.07
2018-07-16T01:57:21.979Z,3.40
2018-07-16T02:02:05.555Z,3.50
2018-07-16T02:06:54.140Z,4.73
2018-07-16T02:11:37.631Z,3.93
2018-07-16T02:16:22.225Z,3.37
2018-07-16T02:21:05.629Z,3.37
2018-07-16T02:25:52.595Z,4.10
2018-07-16T02:30:36.305Z,4.47
2018-07-16T02:35:20.988Z,4.17
2018-07-16T02:40:04.415Z,4.93
2018-07-16T02:44:47.920Z,4.13
2018-07-16T02:49:31.559Z,3.80
2018-07-16T02:54:15.303Z,3.40
2018-07-16T02:58:58.935Z,4.13
2018-07-16T03:03:45.877Z,4.37
2018-07-16T03:08:29.502Z,5.00
2018-07-16T03:13:13.229Z,4.70
2018-07-16T03:17:56.599Z,4.63
2018-07-16T03:22:43.602Z,4.30
2018-07-16T03:27:27.231Z,3.90
2018-07-16T03:32:10.792Z,3.93
2018-07-16T03:36:54.302Z,4.47
2018-07-16T03:41:37.997Z,4.87
2018-07-16T03:46:22.929Z,4.00
2018-07-16T03:51:05.332Z,6.07
2018-07-16T03:55:51.930Z,5.13
2018-07-16T04:00:35.424Z,6.93
2018-07-16T04:05:24.049Z,7.03
2018-07-16T04:10:07.629Z,4.93
2018-07-16T04:14:52.211Z,7.07
2018-07-16T04:19:35.773Z,5.27
2018-07-16T04:24:22.286Z,15.60
2018-07-16T04:29:06.421Z,7.60
2018-07-16T04:33:53.358Z,5.00
2018-07-16T04:38:36.945Z,4.20
2018-07-16T04:43:23.717Z,4.63
2018-07-16T04:48:07.204Z,5.33
2018-07-16T04:52:51.764Z,5.60
2018-07-16T04:57:35.219Z,6.60
2018-07-16T05:02:19.077Z,4.87
2018-07-16T05:07:02.829Z,5.17
2018-07-16T05:11:46.459Z,5.40
2018-07-16T05:16:33.054Z,4.90
2018-07-16T05:21:16.696Z,4.57
2018-07-16T05:26:03.854Z,5.50
2018-07-16T05:30:47.379Z,6.40
2018-07-16T05:35:34.458Z,5.20
2018-07-16T05:40:18.066Z,5.20
2018-07-16T05:45:01.539Z,4.40
2018-07-16T05:49:45.085Z,4.97
2018-07-16T05:54:28.705Z,5.83
2018-07-16T05:59:12.335Z,4.60
2018-07-16T06:03:57.108Z,4.77
2018-07-16T06:08:40.620Z,5.43
2018-07-16T06:13:24.236Z,5.73
2018-07-16T06:18:07.760Z,5.13
2018-07-16T06:22:51.452Z,6.20
2018-07-16T06:27:34.883Z,5.03
2018-07-16T06:32:19.579Z,4.30
2018-07-16T06:37:03.041Z,6.33
2018-07-16T06:41:50.568Z,4.50
2018-07-16T06:46:34.097Z,5.97
2018-07-16T06:51:17.682Z,4.67
2018-07-16T06:56:05.489Z,4.70
2018-07-16T07:00:49.089Z,4.13
2018-07-16T07:05:36.134Z,4.93
2018-07-16T07:10:19.809Z,4.43
2018-07-16T07:15:03.388Z,3.87
2018-07-16T07:19:46.905Z,4.70
2018-07-16T07:24:33.830Z,3.77
2018-07-16T07:29:17.295Z,3.80
2018-07-16T07:34:04.198Z,6.37
2018-07-16T07:38:47.757Z,5.57
2018-07-16T07:43:35.345Z,4.07
2018-07-16T07:48:18.944Z,4.67
2018-07-16T07:53:05.663Z,3.73
2018-07-16T07:57:48.982Z,5.53
2018-07-16T08:02:33.509Z,3.67
2018-07-16T08:07:17.128Z,4.10
2018-07-16T08:12:04.393Z,5.30
2018-07-16T08:16:47.865Z,4.93
2018-07-16T08:21:32.334Z,2.93
2018-07-16T08:26:15.922Z,4.50
2018-07-16T08:30:59.501Z,3.90
2018-07-16T08:35:46.299Z,3.30
2018-07-16T08:40:29.804Z,3.83
2018-07-16T08:45:17.112Z,6.20
2018-07-16T08:50:00.663Z,3.50
2018-07-16T08:54:45.180Z,3.47
2018-07-16T08:59:28.659Z,3.50
2018-07-16T09:04:12.363Z,3.27
2018-07-16T09:08:55.787Z,3.03
2018-07-16T09:13:39.548Z,2.73
2018-07-16T09:18:23.053Z,2.73
2018-07-16T09:23:09.759Z,3.10
2018-07-16T09:27:53.239Z,3.30
2018-07-16T09:32:36.692Z,3.30
2018-07-16T09:37:20.195Z,3.10
2018-07-16T09:42:08.052Z,3.43
2018-07-16T09:46:51.570Z,3.87
2018-07-16T09:51:36.109Z,3.27
2018-07-16T09:56:19.626Z,3.10
2018-07-16T10:01:08.307Z,2.97
2018-07-16T10:05:51.881Z,3.30
2018-07-16T10:10:35.406Z,2.77
2018-07-16T10:15:20.025Z,2.60
2018-07-16T10:20:03.420Z,2.90
2018-07-16T10:24:48.092Z,2.80
2018-07-16T10:29:31.702Z,4.20
2018-07-16T10:34:18.990Z,2.90
2018-07-16T10:39:02.494Z,2.73
2018-07-16T10:43:47.098Z,4.00
2018-07-16T10:48:30.420Z,2.70
2018-07-16T10:53:14.122Z,3.00
2018-07-16T10:57:57.752Z,2.70
2018-07-16T11:02:41.456Z,3.13
2018-07-16T11:07:24.827Z,3.03
2018-07-16T11:12:09.498Z,3.37
2018-07-16T11:16:53.021Z,3.07
2018-07-16T11:21:38.680Z,2.80
2018-07-16T11:26:22.302Z,5.47
2018-07-16T11:31:09.261Z,2.87
2018-07-16T11:35:52.838Z,2.67
2018-07-16T11:40:36.286Z,4.57
2018-07-16T11:45:23.421Z,18.93
2018-07-16T11:50:06.784Z,2.93
2018-07-16T11:54:53.841Z,2.83
2018-07-16T11:59:37.239Z,2.90
2018-07-16T12:04:24.678Z,4.13
2018-07-16T12:09:08.175Z,2.50
2018-07-16T12:13:52.484Z,3.80
2018-07-16T12:18:36.648Z,2.70
2018-07-16T12:23:21.099Z,2.90
2018-07-16T12:28:04.722Z,2.33
2018-07-16T12:32:48.403Z,2.55
2018-07-16T12:37:31.906Z,2.70
2018-07-16T12:42:16.455Z,2.70
2018-07-16T12:47:00.032Z,2.55
2018-07-16T12:51:46.876Z,3.30
2018-07-16T12:56:30.396Z,3.05
2018-07-16T13:01:17.149Z,3.72
2018-07-16T13:06:00.600Z,2.85
2018-07-16T13:10:47.864Z,3.98
2018-07-16T13:15:31.298Z,2.72
2018-07-16T13:20:14.823Z,2.47
2018-07-16T13:25:02.122Z,2.50
2018-07-16T13:29:45.617Z,2.50
2018-07-16T13:34:32.150Z,4.45
2018-07-16T13:39:15.677Z,2.37
2018-07-16T13:43:59.334Z,2.80
2018-07-16T13:48:42.931Z,4.37
2018-07-16T13:53:27.381Z,2.83
2018-07-16T13:58:10.944Z,2.77
2018-07-16T14:02:54.411Z,3.10
2018-07-16T14:07:37.862Z,3.40
2018-07-16T14:12:21.612Z,3.50
2018-07-16T14:17:05.075Z,3.20
2018-07-16T14:21:54.258Z,3.40
2018-07-16T14:26:37.849Z,3.37
2018-07-16T14:31:22.543Z,4.05
2018-07-16T14:36:06.052Z,2.72
2018-07-16T14:40:50.876Z,2.60
2018-07-16T14:45:34.308Z,3.60
2018-07-16T14:50:17.897Z,2.87
2018-07-16T14:55:01.570Z,4.17
2018-07-16T14:59:45.074Z,3.77
2018-07-16T15:04:29.646Z,3.10
2018-07-16T15:09:13.278Z,3.07
2018-07-16T15:13:59.833Z,3.20
2018-07-16T15:18:43.336Z,3.40
2018-07-16T15:23:28.063Z,3.08
2018-07-16T15:28:11.669Z,3.13
2018-07-16T15:32:55.418Z,4.20
2018-07-16T15:37:38.780Z,4.20
2018-07-16T15:42:22.508Z,4.15
2018-07-16T15:47:05.996Z,4.87
2018-07-16T15:51:53.537Z,5.08
2018-07-16T15:56:37.161Z,5.60
2018-07-16T16:01:21.950Z,6.00
2018-07-16T16:06:05.739Z,6.50
2018-07-16T16:10:49.170Z,5.07
2018-07-16T16:15:36.142Z,6.63
2018-07-16T16:20:19.751Z,4.33
2018-07-16T16:25:06.864Z,4.43
2018-07-16T16:29:50.238Z,5.67
2018-07-16T16:34:36.892Z,4.60
2018-07-16T16:39:20.359Z,4.70
2018-07-16T16:44:07.208Z,4.90
2018-07-16T16:48:51.625Z,3.80
2018-07-16T16:53:35.329Z,4.93
2018-07-16T16:58:18.814Z,5.30
2018-07-16T17:03:02.463Z,4.47
2018-07-16T17:07:47.136Z,4.23
2018-07-16T17:12:30.815Z,6.60
2018-07-16T17:17:18.237Z,6.03
2018-07-16T17:22:01.707Z,7.43
2018-07-16T17:26:52.716Z,4.77
2018-07-16T17:31:36.887Z,7.03
2018-07-16T17:36:25.878Z,9.00
2018-07-16T17:41:09.437Z,10.47
2018-07-16T17:45:56.871Z,11.70
2018-07-16T17:50:40.327Z,15.17
2018-07-16T17:55:27.887Z,7.50
2018-07-16T18:00:11.479Z,7.23
2018-07-16T18:04:54.934Z,7.47
2018-07-16T18:09:38.480Z,16.17
2018-07-16T18:14:25.298Z,15.33
2018-07-16T18:19:08.862Z,11.87
2018-07-16T18:23:53.286Z,8.97
2018-07-16T18:28:36.856Z,9.73
2018-07-16T18:33:20.459Z,13.27
2018-07-16T18:38:03.957Z,16.43
2018-07-16T18:42:47.468Z,23.57
2018-07-16T18:47:31.127Z,18.27
2018-07-16T18:52:14.701Z,7.23
2018-07-16T18:56:59.163Z,4.23
2018-07-16T19:01:42.831Z,5.17
2018-07-16T19:06:26.724Z,4.60
2018-07-16T19:11:10.115Z,4.13
2018-07-16T19:15:54.006Z,4.33
2018-07-16T19:20:37.585Z,3.97
2018-07-16T19:25:22.090Z,6.03
2018-07-16T19:30:06.264Z,4.33
2018-07-16T19:34:51.163Z,4.93
2018-07-16T19:39:35.524Z,4.87
2018-07-16T19:44:19.340Z,4.27
2018-07-16T19:49:02.921Z,4.73
2018-07-16T19:53:46.590Z,4.23
2018-07-16T19:58:30.207Z,4.47
2018-07-16T20:03:14.025Z,6.27
2018-07-16T20:07:57.474Z,4.20
2018-07-16T20:12:41.022Z,5.30
2018-07-16T20:17:27.854Z,7.97
2018-07-16T20:22:11.371Z,5.57
2018-07-16T20:26:58.364Z,5.20
2018-07-16T20:31:41.925Z,4.90
2018-07-16T20:36:26.733Z,5.93
2018-07-16T20:41:10.378Z,8.13
2018-07-16T20:45:56.939Z,9.60
2018-07-16T20:50:40.643Z,8.53
2018-07-16T20:55:24.303Z,7.97
2018-07-16T21:00:09.023Z,7.00
2018-07-16T21:04:53.581Z,7.20
2018-07-16T21:09:37.130Z,7.20
2018-07-16T21:14:21.711Z,7.97
2018-07-16T21:19:05.270Z,7.50
2018-07-16T21:23:49.884Z,6.30
2018-07-16T21:28:33.424Z,8.27
2018-07-16T21:33:20.063Z,6.53
2018-07-16T21:38:03.613Z,6.07
2018-07-16T21:42:47.158Z,5.90
2018-07-16T21:47:30.738Z,4.87
2018-07-16T21:52:14.502Z,5.57
2018-07-16T21:57:01.255Z,5.60
2018-07-16T22:01:44.769Z,5.30
2018-07-16T22:06:32.222Z,5.97
2018-07-16T22:11:15.786Z,5.37
2018-07-16T22:16:02.909Z,5.07
2018-07-16T22:20:46.397Z,5.83
2018-07-16T22:25:30.018Z,4.67
2018-07-16T22:30:13.591Z,6.90
2018-07-16T22:35:03.744Z,8.27
2018-07-16T22:39:47.253Z,4.93
2018-07-16T22:44:30.851Z,6.17
2018-07-16T22:49:14.460Z,5.53
2018-07-16T22:53:59.198Z,5.23
2018-07-16T22:58:42.771Z,4.37
2018-07-16T23:03:26.378Z,6.20
2018-07-16T23:08:09.898Z,6.63
2018-07-16T23:12:54.468Z,5.83
2018-07-16T23:17:37.908Z,6.07
2018-07-16T23:22:21.531Z,5.80
2018-07-16T23:27:08.336Z,5.70
2018-07-16T23:31:51.964Z,4.87
2018-07-16T23:36:36.560Z,6.87
2018-07-16T23:41:19.901Z,4.53
2018-07-16T23:46:07.234Z,4.50
2018-07-16T23:50:50.748Z,5.97
2018-07-16T23:55:37.434Z,6.03
